createdAt,value
2022-09-10T00:03:10.595Z,1.60
2022-09-10T00:08:14.639Z,1.00
2022-09-10T00:13:18.918Z,1.00
2022-09-10T00:18:22.988Z,1.20
2022-09-10T00:23:28.211Z,1.00
2022-09-10T00:28:31.126Z,2.00
2022-09-10T00:33:33.813Z,2.00
2022-09-10T00:38:38.144Z,1.00
2022-09-10T00:43:48.748Z,0.00
2022-09-10T00:48:52.697Z,1.00
2022-09-10T00:53:59.112Z,1.00
2022-09-10T00:59:02.089Z,0.40
2022-09-10T01:04:04.928Z,2.00
2022-09-10T01:09:09.180Z,1.00
2022-09-10T01:14:32.271Z,1.00
2022-09-10T01:19:48.866Z,1.20
2022-09-10T01:24:56.666Z,2.00
2022-09-10T01:30:05.036Z,0.80
2022-09-10T01:35:14.723Z,1.00
2022-09-10T01:40:18.773Z,0.00
2022-09-10T01:45:23.400Z,0.40
2022-09-10T01:50:30.065Z,1.00
2022-09-10T01:55:37.861Z,1.00
2022-09-10T02:00:42.699Z,1.00
2022-09-10T02:05:45.962Z,0.00
2022-09-10T02:10:51.529Z,0.20
2022-09-10T02:15:57.563Z,1.00
2022-09-10T02:21:03.283Z,0.60
2022-09-10T02:26:06.186Z,0.00
2022-09-10T02:31:10.259Z,0.80
2022-09-10T02:36:13.091Z,1.00
2022-09-10T02:41:15.820Z,0.00
2022-09-10T02:46:19.937Z,1.00
2022-09-10T02:51:22.591Z,0.00
2022-09-10T02:56:25.501Z,0.00
2022-09-10T03:01:29.759Z,1.00
2022-09-10T03:06:38.295Z,1.00
2022-09-10T03:11:41.750Z,1.00
2022-09-10T03:16:45.749Z,0.60
2022-09-10T03:21:48.397Z,0.00
2022-09-10T03:26:51.049Z,0.20
2022-09-10T03:31:57.927Z,0.00
2022-09-10T03:37:00.715Z,1.00
2022-09-10T03:42:05.190Z,1.00
2022-09-10T03:47:12.223Z,0.80
2022-09-10T03:52:15.170Z,1.00
2022-09-10T03:57:20.148Z,1.00
2022-09-10T04:02:25.402Z,1.00
2022-09-10T04:07:28.209Z,0.20
2022-09-10T04:12:31.452Z,0.00
2022-09-10T04:17:35.451Z,0.60
2022-09-10T04:22:38.850Z,1.60
2022-09-10T04:27:41.704Z,0.40
2022-09-10T04:32:46.868Z,0.40
2022-09-10T04:37:49.851Z,0.00
2022-09-10T04:42:52.825Z,0.00
2022-09-10T04:47:56.881Z,0.40
2022-09-10T04:53:00.389Z,1.00
2022-09-10T04:58:03.486Z,0.00
2022-09-10T05:03:07.800Z,0.40
2022-09-10T05:08:12.734Z,0.80
2022-09-10T05:13:15.516Z,1.00
2022-09-10T05:18:19.526Z,0.80
2022-09-10T05:23:22.164Z,0.80
2022-09-10T05:28:26.181Z,1.40
2022-09-10T05:33:30.948Z,1.00
2022-09-10T05:38:39.377Z,1.80
2022-09-10T05:43:43.354Z,1.00
2022-09-10T05:48:49.009Z,1.00
2022-09-10T05:53:53.451Z,1.40
2022-09-10T05:58:56.255Z,2.00
2022-09-10T06:04:00.477Z,1.80
2022-09-10T06:09:03.251Z,1.00
2022-09-10T06:14:17.305Z,1.00
2022-09-10T06:19:21.446Z,1.00
2022-09-10T06:24:24.487Z,2.00
2022-09-10T06:29:30.624Z,1.20
2022-09-10T06:34:36.053Z,2.00
2022-09-10T06:39:40.298Z,1.00
2022-09-10T06:44:44.064Z,1.00
2022-09-10T06:49:54.477Z,1.00
2022-09-10T06:54:59.415Z,1.00
2022-09-10T07:00:15.196Z,1.00
2022-09-10T07:05:22.480Z,1.00
2022-09-10T07:10:26.867Z,1.00
2022-09-10T07:15:30.065Z,1.00
2022-09-10T07:20:34.157Z,1.00
2022-09-10T07:25:36.911Z,1.00
2022-09-10T07:30:42.550Z,1.60
2022-09-10T07:35:47.259Z,2.60
2022-09-10T07:40:52.748Z,1.00
2022-09-10T07:45:55.597Z,1.00
2022-09-10T07:51:04.213Z,2.80
2022-09-10T07:56:08.255Z,3.00
2022-09-10T08:01:13.796Z,1.60
2022-09-10T08:06:20.314Z,1.00
2022-09-10T08:11:25.238Z,1.00
2022-09-10T08:16:31.346Z,1.00
2022-09-10T08:21:41.344Z,0.40
2022-09-10T08:26:44.196Z,1.00
2022-09-10T08:31:47.448Z,1.60
2022-09-10T08:36:59.526Z,0.80
2022-09-10T08:42:05.179Z,4.00
2022-09-10T08:47:23.886Z,2.00
2022-09-10T08:52:33.959Z,2.40
2022-09-10T08:57:39.975Z,2.00
2022-09-10T09:02:49.481Z,1.80
2022-09-10T09:07:55.642Z,1.00
2022-09-10T09:13:27.869Z,2.00
2022-09-10T09:18:33.846Z,1.00
2022-09-10T09:24:02.816Z,2.00
2022-09-10T09:29:08.657Z,1.40
2022-09-10T09:34:14.893Z,1.20
2022-09-10T09:39:25.002Z,2.20
2022-09-10T09:44:31.156Z,2.00
2022-09-10T09:49:33.812Z,1.00
2022-09-10T09:55:13.166Z,1.00
2022-09-10T10:00:01.926Z,1.00
2022-09-10T10:05:07.059Z,1.00
2022-09-10T10:10:14.128Z,3.00
2022-09-10T10:15:36.369Z,2.00
2022-09-10T10:20:41.310Z,1.80
2022-09-10T10:25:48.639Z,2.20
2022-09-10T10:30:53.028Z,1.40
2022-09-10T10:36:00.453Z,1.20
2022-09-10T10:41:29.620Z,1.00
2022-09-10T10:46:37.328Z,2.80
2022-09-10T10:51:44.281Z,1.40
2022-09-10T10:56:52.224Z,1.40
2022-09-10T11:01:56.936Z,1.40
2022-09-10T11:07:02.015Z,2.20
2022-09-10T11:12:06.868Z,1.00
2022-09-10T11:17:12.227Z,2.00
2022-09-10T11:22:15.853Z,1.00
2022-09-10T11:27:21.666Z,1.60
2022-09-10T11:32:28.333Z,1.60
2022-09-10T11:37:45.039Z,1.40
2022-09-10T11:42:52.263Z,2.00
2022-09-10T11:47:57.079Z,1.00
2022-09-10T11:52:59.830Z,1.80
2022-09-10T11:58:07.082Z,2.00
2022-09-10T12:03:33.263Z,1.00
2022-09-10T12:08:48.777Z,2.00
2022-09-10T12:13:53.118Z,1.60
2022-09-10T12:18:55.798Z,2.40
2022-09-10T12:23:58.386Z,1.20
2022-09-10T12:29:04.011Z,1.40
2022-09-10T12:34:08.013Z,2.60
2022-09-10T12:39:23.201Z,2.00
2022-09-10T12:44:47.769Z,1.80
2022-09-10T12:49:51.878Z,1.00
2022-09-10T12:54:56.681Z,3.00
2022-09-10T13:00:12.912Z,1.00
2022-09-10T13:05:22.653Z,2.00
2022-09-10T13:10:26.228Z,2.40
2022-09-10T13:15:32.082Z,1.60
2022-09-10T13:20:35.471Z,2.60
2022-09-10T13:25:41.540Z,2.00
2022-09-10T13:30:45.625Z,2.00
2022-09-10T13:36:12.817Z,2.00
2022-09-10T13:41:21.717Z,3.00
2022-09-10T13:46:28.277Z,2.00
2022-09-10T13:51:33.317Z,3.00
2022-09-10T13:56:36.141Z,1.00
2022-09-10T14:01:54.043Z,2.60
2022-09-10T14:06:59.070Z,2.00
2022-09-10T14:12:02.263Z,2.00
2022-09-10T14:17:08.632Z,2.00
2022-09-10T14:22:15.334Z,1.20
2022-09-10T14:27:19.539Z,2.00
2022-09-10T14:32:33.567Z,1.60
2022-09-10T14:37:38.156Z,3.00
2022-09-10T14:42:40.808Z,1.60
2022-09-10T14:47:53.823Z,3.80
2022-09-10T14:52:56.420Z,2.00
2022-09-10T14:57:59.031Z,2.20
2022-09-10T15:03:04.509Z,1.40
2022-09-10T15:08:07.097Z,1.00
2022-09-10T15:13:10.023Z,1.00
2022-09-10T15:18:14.684Z,2.80
2022-09-10T15:23:18.185Z,1.00
2022-09-10T15:28:21.025Z,1.00
2022-09-10T15:33:25.314Z,3.00
2022-09-10T15:38:27.919Z,1.00
2022-09-10T15:43:30.522Z,2.00
2022-09-10T15:48:34.527Z,2.00
2022-09-10T15:53:37.111Z,1.40
2022-09-10T15:58:40.052Z,1.20
2022-09-10T16:03:47.919Z,2.00
2022-09-10T16:08:50.704Z,2.00
2022-09-10T16:13:53.348Z,3.00
2022-09-10T16:18:57.984Z,2.00
2022-09-10T16:24:01.067Z,3.00
2022-09-10T16:29:05.866Z,2.80
2022-09-10T16:34:24.580Z,3.00
2022-09-10T16:39:28.772Z,2.20
2022-09-10T16:44:32.466Z,2.60
2022-09-10T16:49:35.308Z,4.60
2022-09-10T16:54:40.059Z,3.00
2022-09-10T16:59:46.173Z,3.80
2022-09-10T17:04:48.900Z,5.00
2022-09-10T17:09:55.458Z,4.60
2022-09-10T17:15:01.374Z,5.00
2022-09-10T17:20:04.326Z,4.00
2022-09-10T17:25:09.179Z,4.40
2022-09-10T17:30:12.480Z,5.00
2022-09-10T17:35:15.593Z,5.00
2022-09-10T17:40:20.792Z,4.00
2022-09-10T17:45:23.844Z,5.20
2022-09-10T17:50:27.507Z,6.00
2022-09-10T17:55:34.397Z,5.00
2022-09-10T18:00:39.798Z,6.60
2022-09-10T18:05:42.898Z,5.60
2022-09-10T18:10:47.049Z,8.00
2022-09-10T18:15:49.670Z,9.60
2022-09-10T18:20:52.472Z,10.20
2022-09-10T18:25:56.440Z,7.00
2022-09-10T18:31:03.260Z,9.80
2022-09-10T18:36:16.129Z,7.60
2022-09-10T18:41:22.413Z,8.00
2022-09-10T18:46:25.945Z,9.20
2022-09-10T18:51:29.668Z,10.80
2022-09-10T18:56:33.593Z,9.20
2022-09-10T19:01:37.104Z,10.40
2022-09-10T19:06:42.258Z,7.80
2022-09-10T19:11:47.066Z,7.00
2022-09-10T19:16:50.166Z,8.20
2022-09-10T19:21:53.925Z,6.00
2022-09-10T19:26:58.110Z,7.00
2022-09-10T19:32:01.218Z,8.00
2022-09-10T19:37:03.930Z,7.00
2022-09-10T19:42:08.171Z,7.00
2022-09-10T19:47:10.774Z,6.40
2022-09-10T19:52:14.757Z,6.20
2022-09-10T19:57:18.783Z,6.40
2022-09-10T20:02:21.463Z,7.00
2022-09-10T20:07:24.954Z,7.80
2022-09-10T20:12:29.045Z,6.60
2022-09-10T20:17:31.770Z,6.00
2022-09-10T20:22:38.607Z,7.00
2022-09-10T20:27:42.774Z,7.00
2022-09-10T20:32:45.663Z,5.80
2022-09-10T20:37:51.660Z,7.20
2022-09-10T20:42:55.823Z,10.20
2022-09-10T20:48:00.265Z,8.20
2022-09-10T20:53:02.868Z,12.00
2022-09-10T20:58:06.820Z,14.00
2022-09-10T21:03:09.805Z,13.20
2022-09-10T21:08:12.464Z,11.80
2022-09-10T21:13:16.495Z,8.40
2022-09-10T21:18:19.072Z,10.00
2022-09-10T21:23:21.678Z,10.20
2022-09-10T21:28:27.192Z,8.80
2022-09-10T21:33:30.221Z,8.60
2022-09-10T21:38:34.891Z,6.20
2022-09-10T21:43:38.801Z,7.00
2022-09-10T21:48:42.285Z,7.00
2022-09-10T21:53:45.221Z,5.00
2022-09-10T21:58:49.186Z,6.00
2022-09-10T22:03:52.665Z,7.40
2022-09-10T22:08:58.517Z,5.80
2022-09-10T22:14:03.217Z,5.60
2022-09-10T22:19:07.224Z,5.40
2022-09-10T22:24:10.421Z,4.40
2022-09-10T22:29:16.362Z,5.00
2022-09-10T22:34:19.019Z,5.60
2022-09-10T22:39:22.171Z,4.60
2022-09-10T22:44:26.212Z,5.00
2022-09-10T22:49:28.851Z,4.00
2022-09-10T22:54:31.414Z,3.40
2022-09-10T22:59:37.453Z,5.60
2022-09-10T23:04:41.167Z,3.00
2022-09-10T23:09:43.766Z,3.00
2022-09-10T23:14:47.854Z,3.00
2022-09-10T23:19:50.476Z,3.00
2022-09-10T23:24:53.051Z,3.20
2022-09-10T23:29:57.544Z,4.00
2022-09-10T23:35:00.790Z,3.60
2022-09-10T23:40:03.843Z,3.00
2022-09-10T23:45:09.024Z,2.80
2022-09-10T23:50:11.640Z,3.00
2022-09-10T23:55:14.370Z,2.60
